Nearby METAR Reports

 

KTAN - Taunton, Massachusetts, USA
Distance from station: W 5mi, 8km
Updated: 04/04/2020 4:52pm
Clear
Clear
 Wind from ENE
Wind: ENE 10 mph , 17 km/h
Temperature: 46°F , 8°C
Wind Chill: 41°F , 5°C
Dew Point: 34°F , 1°C
Humidity: 62%
Barometer: 29.99 inHg , 1015.6 hPa
Clouds: Clear
Visibility: 10 miles , 16 km
2020/04/04 20:52 KTAN 042052Z AUTO 07009KT 10SM CLR 08/01 A2999 RMK AO2 SLP155 T00830011 58006
KPYM - Plymouth, Massachusetts, USA
Distance from station: ENE 10mi, 16km
Updated: 04/04/2020 4:52pm
Few Clouds
Few Clouds
 Wind from ENE
Wind: ENE 10 mph , 17 km/h
Temperature: 43°F , 6°C
Wind Chill: 37°F , 3°C
Dew Point: 36°F , 2°C
Humidity: 76%
Barometer: 29.99 inHg , 1015.6 hPa
Clouds: Few Clouds
Visibility: 10 miles , 16 km
Cloud details: Few Clouds 1400 ft
2020/04/04 20:52 KPYM 042052Z AUTO 06009KT 10SM FEW014 06/02 A2999 RMK AO2 SLP157 T00560017 58008
 
KEWB - New Bedford, Massachusetts, USA
Distance from station: S 14mi, 23km
Updated: 04/04/2020 4:53pm
Few Clouds
Few Clouds
 Wind from NE
Wind: NE 12 mph , 19 km/h
Temperature: 45°F , 7°C
Wind Chill: 39°F , 4°C
Dew Point: 36°F , 2°C
Humidity: 71%
Barometer: 29.99 inHg , 1015.6 hPa
Clouds: Few Clouds
Visibility: 10 miles , 16 km
Cloud details: Few Clouds 2200 ft
2020/04/04 20:53 KEWB 042053Z 04010KT 10SM FEW022 07/02 A2999 RMK AO2 SLP155 T00720017 56004
KGHG - Marshfield, Massachusetts, USA
Distance from station: NE 20mi, 31km
Updated: 04/04/2020 5:35pm
Few Clouds
Few Clouds
 Wind from ENE
Wind: ENE 8 mph , 13 km/h
Temperature: 43°F , 6°C
Wind Chill: 38°F , 3°C
Dew Point: 36°F , 2°C
Humidity: 76%
Barometer: 30.01 inHg , 1016.3 hPa
Clouds: Few Clouds
Visibility: 10 miles , 16 km
Cloud details: Few Clouds 1200 ft
2020/04/04 21:35 KGHG 042135Z AUTO 06007KT 10SM FEW012 06/02 A3001 RMK AO2
 
KOWD - Norwood, Massachusetts, USA
Distance from station: NNW 24mi, 39km
Updated: 04/04/2020 4:53pm
Overcast
Overcast
 Wind from ENE
Wind: ENE 8 mph , 13 km/h
Temperature: 48°F , 9°C
Wind Chill: 44°F , 7°C
Dew Point: 34°F , 1°C
Humidity: 58%
Barometer: 29.99 inHg , 1015.6 hPa
Clouds: Overcast
Visibility: 10 miles , 16 km
Cloud details: Overcast 5500 ft
2020/04/04 20:53 KOWD 042053Z 06007KT 10SM OVC055 09/01 A2999 RMK AO2 SLP156 T00940006 56010
KMQE - East Milton, Massachusetts, USA
Distance from station: NNW 25mi, 40km
Updated: 04/04/2020 4:51pm

 Wind from ENE
Wind: ENE 9 mph , 15 km/h
Temperature: 43°F , 6°C
Wind Chill: 38°F , 3°C
Dew Point: 32°F , 0°C
Humidity: 66%
Barometer: 29.97 inHg , 1014.9 hPa
2020/04/04 20:51 KMQE 042051Z AUTO 07008KT 06/00 A2997 RMK AO1 SLP165 T00610000 56009
 
KFMH - Falmouth/Otis Ab, Massachusetts, USA
Distance from station: SE 27mi, 44km
Updated: 04/04/2020 4:56pm
Mostly cloudy
Mostly cloudy
 Wind from NNE
Wind: NNE 14 mph , 22 km/h, Gust: 24 mph , 39 km/h
Temperature: 41°F , 5°C
Wind Chill: 33°F , 1°C
Dew Point: 36°F , 2°C
Humidity: 81%
Barometer: 29.99 inHg , 1015.6 hPa
Clouds: Mostly cloudy
Visibility: 7 miles , 11 km
Cloud details: Mostly cloudy 1300 ft
2020/04/04 20:56 KFMH 042056Z 02012G21KT 7SM BKN013 05/02 A2999
KPVD - Providence/Green, Rhode Island, USA
Distance from station: WSW 29mi, 47km
Updated: 04/04/2020 4:51pm
Few Clouds
Few Clouds
 Wind from ENE
Wind: ENE 13 mph , 20 km/h
Temperature: 52°F , 11°C
Dew Point: 36°F , 2°C
Humidity: 54%
Barometer: 29.99 inHg , 1015.6 hPa
Clouds: Few Clouds
Visibility: 10 miles , 16 km
Cloud details: Few Clouds 3000 ft
2020/04/04 20:51 KPVD 042051Z 06011KT 10SM FEW030 11/02 A2999 RMK AO2 PK WND 07026/1956 SLP155 T01110017 56008
 
KSFZ - Pawtucket, Rhode Island, USA
Distance from station: W 30mi, 48km
Updated: 04/04/2020 4:56pm
Clear
Clear
 Wind from E
Wind: E 7 mph , 11 km/h
Temperature: 52°F , 11°C
Dew Point: 36°F , 2°C
Humidity: 54%
Barometer: 29.98 inHg , 1015.2 hPa
Clouds: Clear
Visibility: 10 miles , 16 km
2020/04/04 20:56 KSFZ 042056Z AUTO 09006KT 10SM CLR 11/02 A2998 RMK AO2 SLP100 T01110022 56010
KUUU - Newport, Rhode Island, USA
Distance from station: SW 31mi, 50km
Updated: 04/04/2020 4:53pm
Few Clouds
Few Clouds
 Wind from NNE
Wind: NNE 14 mph , 22 km/h
Temperature: 50°F , 10°C
Wind Chill: 45°F , 7°C
Dew Point: 36°F , 2°C
Humidity: 58%
Barometer: 29.98 inHg , 1015.2 hPa
Clouds: Few Clouds
Visibility: 10 miles , 16 km
Cloud details: Few Clouds 2800 ft
2020/04/04 20:53 KUUU 042053Z AUTO 02012KT 10SM FEW028 10/02 A2998 RMK AO2 SLP151 T01000017 55006
 
KOQU - N. Kingston/Quon, Rhode Island, USA
Distance from station: SW 32mi, 52km
Updated: 04/04/2020 4:50pm
Few Clouds
Few Clouds
 Wind from ENE
Wind: ENE 15 mph , 24 km/h
Temperature: 50°F , 10°C
Wind Chill: 45°F , 7°C
Dew Point: 39°F , 4°C
Humidity: 67%
Barometer: 29.98 inHg , 1015.2 hPa
Clouds: Few Clouds
Visibility: 10 miles , 16 km
Cloud details: Few Clouds 2500 ft
2020/04/04 20:50 KOQU 042050Z 06013KT 10SM FEW025 10/04 A2998 RMK LAST
KBOS - Boston, Massachusetts, USA
Distance from station: N 33mi, 54km
Updated: 04/04/2020 4:54pm
Mostly cloudy
Mostly cloudy
 Wind from ESE
Wind: ESE 9 mph , 15 km/h
Temperature: 41°F , 5°C
Wind Chill: 35°F , 2°C
Dew Point: 36°F , 2°C
Humidity: 81%
Barometer: 30.01 inHg , 1016.3 hPa
Clouds: Mostly cloudy
Visibility: 10 miles , 16 km
Cloud details: Few Clouds 2500 ft
Mostly cloudy 5500 ft
2020/04/04 20:54 KBOS 042054Z 12008KT 10SM FEW025 BKN055 05/02 A3001 RMK AO2 SLP162 T00500017 56009
 
KHYA - Hyannis, Massachusetts, USA
Distance from station: ESE 37mi, 59km
Updated: 04/04/2020 4:56pm
Overcast
Overcast
 Wind from NNE
Wind: NNE 10 mph , 17 km/h, Gust: 22 mph , 35 km/h
Temperature: 45°F , 7°C
Wind Chill: 40°F , 4°C
Dew Point: 34°F , 1°C
Humidity: 66%
Barometer: 29.97 inHg , 1014.9 hPa
Clouds: Overcast
Visibility: 10 miles , 16 km
Cloud details: Overcast 1700 ft
2020/04/04 20:56 KHYA 042056Z 02009G19KT 10SM OVC017 07/01 A2997 RMK AO2 SLP150 T00670011 55003
KMVY - Marthas Vineyard, Massachusetts, USA
Distance from station: SSE 37mi, 60km
Updated: 04/04/2020 5:35pm
Partly cloudy
Partly cloudy
 Wind from NE
Wind: NE 17 mph , 28 km/h
Temperature: 45°F , 7°C
Wind Chill: 38°F , 3°C
Dew Point: 36°F , 2°C
Humidity: 71%
Barometer: 29.98 inHg , 1015.2 hPa
Clouds: Partly cloudy
Visibility: 10 miles , 16 km
Cloud details: Partly cloudy 1900 ft
2020/04/04 21:35 KMVY 042135Z AUTO 05015KT 10SM SCT019 07/02 A2998 RMK AO2 T00670017
 
KPVC - Provincetown, Massachusetts, USA
Distance from station: ENE 38mi, 61km
Updated: 04/04/2020 4:56pm
Few Clouds
Few Clouds
 Wind from NE
Wind: NE 14 mph , 22 km/h
Temperature: 43°F , 6°C
Wind Chill: 36°F , 2°C
Dew Point: 36°F , 2°C
Humidity: 76%
Barometer: 30.01 inHg , 1016.3 hPa
Clouds: Few Clouds
Visibility: 10 miles , 16 km
Cloud details: Few Clouds 1300 ft
2020/04/04 20:56 KPVC 042056Z AUTO 05012KT 10SM FEW013 06/02 A3001 RMK AO2 SLP160 6//// T00610022 58002 PNO $
KBED - Bedford, Massachusetts, USA
Distance from station: NNW 44mi, 72km
Updated: 04/04/2020 4:51pm
Overcast
Overcast
 Wind from ESE
Wind: ESE 10 mph , 17 km/h
Temperature: 50°F , 10°C
Wind Chill: 46°F , 8°C
Dew Point: 36°F , 2°C
Humidity: 58%
Barometer: 29.98 inHg , 1015.2 hPa
Clouds: Overcast
Visibility: 10 miles , 16 km
Cloud details: Overcast 5500 ft
2020/04/04 20:51 KBED 042051Z 12009KT 10SM OVC055 10/02 A2998 RMK AO2 SLP165 T01000022 56012
 
KBVY - Beverly, Massachusetts, USA
Distance from station: 0 48mi, 77km
Updated: 04/04/2020 4:53pm
Mostly cloudy
Mostly cloudy
 Wind from SE
Wind: SE 8 mph , 13 km/h
Temperature: 45°F , 7°C
Wind Chill: 41°F , 5°C
Dew Point: 36°F , 2°C
Humidity: 71%
Barometer: 30.01 inHg , 1016.3 hPa
Clouds: Mostly cloudy
Visibility: 10 miles , 16 km
Cloud details: Mostly cloudy 5500 ft
2020/04/04 20:53 KBVY 042053Z 14007KT 10SM BKN055 07/02 A3001 RMK AO2 SLP157 T00670022 55007
KCQX - Chatham, Massachusetts, USA
Distance from station: ESE 49mi, 80km
Updated: 04/04/2020 5:16pm
Overcast
Overcast
 Wind from NE
Wind: NE 12 mph , 19 km/h
Temperature: 41°F , 5°C
Wind Chill: 34°F , 1°C
Dew Point: 34°F , 1°C
Humidity: 76%
Barometer: 29.99 inHg , 1015.6 hPa
Clouds: Overcast
Visibility: 10 miles , 16 km
Cloud details: Overcast 1500 ft
2020/04/04 21:16 KCQX 042116Z AUTO 04010KT 10SM OVC015 05/01 A2999 RMK AO2 T00500006